sensor_id;sensor_type;location;lat;lon;timestamp;pressure;altitude;pressure_sealevel;temperature;humidity
49541;BME280;35432;43.566;1.398;2023-01-30T00:00:59;101269.81;;;5.32;70.85
49541;BME280;35432;43.566;1.398;2023-01-30T00:03:25;101263.69;;;5.32;70.50
49541;BME280;35432;43.566;1.398;2023-01-30T00:05:51;101265.47;;;5.33;70.47
49541;BME280;35432;43.566;1.398;2023-01-30T00:08:17;101266.31;;;5.32;70.67
49541;BME280;35432;43.566;1.398;2023-01-30T00:10:43;101269.75;;;5.31;70.88
49541;BME280;35432;43.566;1.398;2023-01-30T00:13:08;101265.38;;;5.30;70.38
49541;BME280;35432;43.566;1.398;2023-01-30T00:15:34;101267.97;;;5.30;70.37
49541;BME280;35432;43.566;1.398;2023-01-30T00:18:00;101262.75;;;5.30;70.65
49541;BME280;35432;43.566;1.398;2023-01-30T00:20:25;101255.75;;;5.29;70.40
49541;BME280;35432;43.566;1.398;2023-01-30T00:22:51;101253.13;;;5.29;70.69
49541;BME280;35432;43.566;1.398;2023-01-30T00:25:16;101267.03;;;5.28;70.38
49541;BME280;35432;43.566;1.398;2023-01-30T00:27:41;101255.69;;;5.27;70.37
49541;BME280;35432;43.566;1.398;2023-01-30T00:30:07;101257.47;;;5.28;70.97
49541;BME280;35432;43.566;1.398;2023-01-30T00:32:33;101258.38;;;5.29;70.75
49541;BME280;35432;43.566;1.398;2023-01-30T00:34:58;101252.25;;;5.28;70.61
49541;BME280;35432;43.566;1.398;2023-01-30T00:37:24;101251.38;;;5.28;70.55
49541;BME280;35432;43.566;1.398;2023-01-30T00:39:49;101256.59;;;5.28;70.68
49541;BME280;35432;43.566;1.398;2023-01-30T00:42:15;101256.59;;;5.28;70.33
49541;BME280;35432;43.566;1.398;2023-01-30T00:44:59;101258.25;;;5.26;70.25
49541;BME280;35432;43.566;1.398;2023-01-30T00:47:43;101246.03;;;5.25;70.19
49541;BME280;35432;43.566;1.398;2023-01-30T00:50:10;101247.72;;;5.23;70.55
49541;BME280;35432;43.566;1.398;2023-01-30T00:52:35;101249.50;;;5.24;70.58
49541;BME280;35432;43.566;1.398;2023-01-30T00:55:01;101240.81;;;5.25;70.95
49541;BME280;35432;43.566;1.398;2023-01-30T00:57:26;101248.69;;;5.26;70.99
49541;BME280;35432;43.566;1.398;2023-01-30T00:59:52;101246.03;;;5.25;70.67
49541;BME280;35432;43.566;1.398;2023-01-30T01:02:17;101250.38;;;5.24;70.63
49541;BME280;35432;43.566;1.398;2023-01-30T01:04:43;101246.88;;;5.24;70.87
49541;BME280;35432;43.566;1.398;2023-01-30T01:07:09;101244.28;;;5.24;70.41
49541;BME280;35432;43.566;1.398;2023-01-30T01:09:35;101253.88;;;5.25;70.61
49541;BME280;35432;43.566;1.398;2023-01-30T01:12:00;101244.22;;;5.22;70.37
49541;BME280;35432;43.566;1.398;2023-01-30T01:14:26;101244.19;;;5.21;70.23
49541;BME280;35432;43.566;1.398;2023-01-30T01:16:51;101244.19;;;5.21;70.42
49541;BME280;35432;43.566;1.398;2023-01-30T01:19:16;101250.25;;;5.21;70.87
49541;BME280;35432;43.566;1.398;2023-01-30T01:21:42;101247.63;;;5.20;70.74
49541;BME280;35432;43.566;1.398;2023-01-30T01:24:13;101252.84;;;5.20;70.53
49541;BME280;35432;43.566;1.398;2023-01-30T01:26:38;101249.25;;;5.17;70.60
49541;BME280;35432;43.566;1.398;2023-01-30T01:29:04;101250.09;;;5.16;70.38
49541;BME280;35432;43.566;1.398;2023-01-30T01:31:29;101253.63;;;5.17;70.46
49541;BME280;35432;43.566;1.398;2023-01-30T01:33:55;101255.28;;;5.15;70.58
49541;BME280;35432;43.566;1.398;2023-01-30T01:36:21;101263.06;;;5.13;70.78
49541;BME280;35432;43.566;1.398;2023-01-30T01:38:47;101261.28;;;5.12;70.59
49541;BME280;35432;43.566;1.398;2023-01-30T01:41:14;101265.63;;;5.12;70.88
49541;BME280;35432;43.566;1.398;2023-01-30T01:44:00;101261.97;;;5.07;67.56
49541;BME280;35432;43.566;1.398;2023-01-30T01:46:35;101271.59;;;5.08;70.58
49541;BME280;35432;43.566;1.398;2023-01-30T01:49:11;101276.75;;;5.06;70.89
49541;BME280;35432;43.566;1.398;2023-01-30T01:51:39;101273.28;;;5.07;70.84
49541;BME280;35432;43.566;1.398;2023-01-30T01:54:12;101279.41;;;5.08;71.04
49541;BME280;35432;43.566;1.398;2023-01-30T01:56:41;101281.19;;;5.09;71.13
49541;BME280;35432;43.566;1.398;2023-01-30T01:59:17;101287.25;;;5.08;70.82
49541;BME280;35432;43.566;1.398;2023-01-30T02:01:44;101283.75;;;5.07;71.26
49541;BME280;35432;43.566;1.398;2023-01-30T02:04:11;101287.19;;;5.06;71.47
49541;BME280;35432;43.566;1.398;2023-01-30T02:06:38;101294.94;;;5.05;70.78
49541;BME280;35432;43.566;1.398;2023-01-30T02:09:07;101292.31;;;5.03;70.79
49541;BME280;35432;43.566;1.398;2023-01-30T02:11:49;101299.19;;;5.01;70.25
49541;BME280;35432;43.566;1.398;2023-01-30T02:14:17;101302.75;;;5.03;71.21
49541;BME280;35432;43.566;1.398;2023-01-30T02:16:45;101301.84;;;5.02;70.91
49541;BME280;35432;43.566;1.398;2023-01-30T02:22:25;101305.97;;;4.96;68.77
49541;BME280;35432;43.566;1.398;2023-01-30T02:36:14;101308.53;;;4.94;68.99
49541;BME280;35432;43.566;1.398;2023-01-30T02:38:51;101304.97;;;4.92;69.56
49541;BME280;35432;43.566;1.398;2023-01-30T02:44:04;101296.09;;;4.87;70.31
49541;BME280;35432;43.566;1.398;2023-01-30T02:46:34;101298.72;;;4.87;71.27
49541;BME280;35432;43.566;1.398;2023-01-30T02:49:22;101295.75;;;4.78;66.98
49541;BME280;35432;43.566;1.398;2023-01-30T02:51:51;101290.59;;;4.79;70.17
49541;BME280;35432;43.566;1.398;2023-01-30T02:54:16;101281.84;;;4.79;70.35
49541;BME280;35432;43.566;1.398;2023-01-30T02:56:49;101285.31;;;4.78;70.45
49541;BME280;35432;43.566;1.398;2023-01-30T02:59:25;101278.31;;;4.77;70.40
49541;BME280;35432;43.566;1.398;2023-01-30T03:05:23;101274.75;;;4.74;69.05
49541;BME280;35432;43.566;1.398;2023-01-30T03:15:40;101268.78;;;4.77;70.03
49541;BME280;35432;43.566;1.398;2023-01-30T03:18:08;101270.56;;;4.78;70.23
49541;BME280;35432;43.566;1.398;2023-01-30T03:20:40;101262.72;;;4.78;69.39
49541;BME280;35432;43.566;1.398;2023-01-30T03:23:07;101265.44;;;4.81;69.74
49541;BME280;35432;43.566;1.398;2023-01-30T03:25:34;101262.00;;;4.82;70.18
49541;BME280;35432;43.566;1.398;2023-01-30T03:28:01;101275.94;;;4.83;69.88
49541;BME280;35432;43.566;1.398;2023-01-30T03:30:28;101275.09;;;4.84;70.08
49541;BME280;35432;43.566;1.398;2023-01-30T03:32:53;101273.38;;;4.84;70.48
49541;BME280;35432;43.566;1.398;2023-01-30T03:35:19;101275.09;;;4.84;69.75
49541;BME280;35432;43.566;1.398;2023-01-30T03:37:45;101280.31;;;4.84;69.92
49541;BME280;35432;43.566;1.398;2023-01-30T03:40:12;101283.78;;;4.83;69.57
49541;BME280;35432;43.566;1.398;2023-01-30T03:42:39;101284.66;;;4.83;69.89
49541;BME280;35432;43.566;1.398;2023-01-30T03:45:04;101279.34;;;4.82;69.54
49541;BME280;35432;43.566;1.398;2023-01-30T03:47:30;101286.22;;;4.78;68.48
49541;BME280;35432;43.566;1.398;2023-01-30T03:49:55;101289.66;;;4.77;68.99
49541;BME280;35432;43.566;1.398;2023-01-30T03:52:21;101299.16;;;4.75;68.92
49541;BME280;35432;43.566;1.398;2023-01-30T03:54:46;101296.44;;;4.72;69.13
49541;BME280;35432;43.566;1.398;2023-01-30T03:57:12;101299.88;;;4.71;69.36
49541;BME280;35432;43.566;1.398;2023-01-30T03:59:37;101301.66;;;4.72;69.42
49541;BME280;35432;43.566;1.398;2023-01-30T04:02:03;101306.88;;;4.72;69.66
49541;BME280;35432;43.566;1.398;2023-01-30T04:04:28;101310.41;;;4.74;69.48
49541;BME280;35432;43.566;1.398;2023-01-30T04:06:53;101310.41;;;4.74;69.27
49541;BME280;35432;43.566;1.398;2023-01-30T04:09:19;101308.66;;;4.73;69.38
49541;BME280;35432;43.566;1.398;2023-01-30T04:11:44;101310.31;;;4.71;68.96
49541;BME280;35432;43.566;1.398;2023-01-30T04:14:10;101313.72;;;4.70;69.43
49541;BME280;35432;43.566;1.398;2023-01-30T04:16:35;101308.56;;;4.71;69.42
49541;BME280;35432;43.566;1.398;2023-01-30T04:19:01;101312.97;;;4.72;69.39
49541;BME280;35432;43.566;1.398;2023-01-30T04:21:26;101319.91;;;4.72;68.90
49541;BME280;35432;43.566;1.398;2023-01-30T04:23:51;101314.72;;;4.73;69.58
49541;BME280;35432;43.566;1.398;2023-01-30T04:26:17;101319.91;;;4.72;69.19
49541;BME280;35432;43.566;1.398;2023-01-30T04:28:42;101327.66;;;4.70;69.65
49541;BME280;35432;43.566;1.398;2023-01-30T04:31:09;101337.19;;;4.70;69.63
49541;BME280;35432;43.566;1.398;2023-01-30T04:33:34;101343.25;;;4.69;69.29
49541;BME280;35432;43.566;1.398;2023-01-30T04:36:01;101351.81;;;4.65;69.21
49541;BME280;35432;43.566;1.398;2023-01-30T04:38:28;101356.03;;;4.61;68.99
49541;BME280;35432;43.566;1.398;2023-01-30T04:40:55;101360.31;;;4.59;68.92
49541;BME280;35432;43.566;1.398;2023-01-30T04:43:22;101363.69;;;4.56;69.24
49541;BME280;35432;43.566;1.398;2023-01-30T04:45:48;101371.50;;;4.56;69.12
49541;BME280;35432;43.566;1.398;2023-01-30T04:48:14;101386.22;;;4.54;69.25
49541;BME280;35432;43.566;1.398;2023-01-30T04:50:41;101387.91;;;4.54;69.29
49541;BME280;35432;43.566;1.398;2023-01-30T04:53:07;101382.78;;;4.55;69.12
49541;BME280;35432;43.566;1.398;2023-01-30T04:55:33;101382.78;;;4.55;69.72
49541;BME280;35432;43.566;1.398;2023-01-30T04:57:58;101379.34;;;4.56;69.84
49541;BME280;35432;43.566;1.398;2023-01-30T05:00:24;101371.44;;;4.55;69.54
49541;BME280;35432;43.566;1.398;2023-01-30T05:02:50;101370.56;;;4.54;69.24
49541;BME280;35432;43.566;1.398;2023-01-30T05:05:16;101376.59;;;4.53;69.08
49541;BME280;35432;43.566;1.398;2023-01-30T05:07:41;101369.66;;;4.54;69.25
49541;BME280;35432;43.566;1.398;2023-01-30T05:10:07;101357.50;;;4.54;69.27
49541;BME280;35432;43.566;1.398;2023-01-30T05:12:33;101353.13;;;4.53;69.16
49541;BME280;35432;43.566;1.398;2023-01-30T05:14:58;101347.91;;;4.53;69.41
49541;BME280;35432;43.566;1.398;2023-01-30T05:17:24;101354.91;;;4.54;69.28
49541;BME280;35432;43.566;1.398;2023-01-30T05:19:49;101353.13;;;4.53;69.12
49541;BME280;35432;43.566;1.398;2023-01-30T05:22:14;101342.59;;;4.50;68.80
49541;BME280;35432;43.566;1.398;2023-01-30T05:24:40;101334.69;;;4.49;69.54
49541;BME280;35432;43.566;1.398;2023-01-30T05:27:05;101337.38;;;4.50;69.32
49541;BME280;35432;43.566;1.398;2023-01-30T05:29:31;101346.91;;;4.50;69.49
49541;BME280;35432;43.566;1.398;2023-01-30T05:31:56;101347.69;;;4.47;68.97
49541;BME280;35432;43.566;1.398;2023-01-30T05:34:21;101347.69;;;4.47;68.86
49541;BME280;35432;43.566;1.398;2023-01-30T05:36:47;101342.31;;;4.44;68.76
49541;BME280;35432;43.566;1.398;2023-01-30T05:39:12;101351.94;;;4.45;69.41
49541;BME280;35432;43.566;1.398;2023-01-30T05:41:38;101359.75;;;4.45;68.60
49541;BME280;35432;43.566;1.398;2023-01-30T05:44:03;101350.16;;;4.44;69.49
49541;BME280;35432;43.566;1.398;2023-01-30T05:46:29;101348.44;;;4.44;69.34
49541;BME280;35432;43.566;1.398;2023-01-30T05:48:54;101348.47;;;4.46;68.98
49541;BME280;35432;43.566;1.398;2023-01-30T05:51:22;101354.53;;;4.45;69.74
49541;BME280;35432;43.566;1.398;2023-01-30T05:53:48;101358.91;;;4.46;69.62
49541;BME280;35432;43.566;1.398;2023-01-30T05:56:14;101361.53;;;4.46;69.25
49541;BME280;35432;43.566;1.398;2023-01-30T05:58:40;101370.19;;;4.45;69.69
49541;BME280;35432;43.566;1.398;2023-01-30T06:01:09;101370.19;;;4.45;69.59
49541;BME280;35432;43.566;1.398;2023-01-30T06:03:35;101365.78;;;4.44;69.26
49541;BME280;35432;43.566;1.398;2023-01-30T06:06:02;101367.56;;;4.45;69.70
49541;BME280;35432;43.566;1.398;2023-01-30T06:08:28;101374.56;;;4.46;69.37
49541;BME280;35432;43.566;1.398;2023-01-30T06:10:53;101375.41;;;4.45;69.60
49541;BME280;35432;43.566;1.398;2023-01-30T06:13:18;101375.41;;;4.45;69.09
49541;BME280;35432;43.566;1.398;2023-01-30T06:15:44;101380.63;;;4.45;69.72
49541;BME280;35432;43.566;1.398;2023-01-30T06:18:09;101374.53;;;4.44;68.90
49541;BME280;35432;43.566;1.398;2023-01-30T06:20:35;101376.19;;;4.42;68.85
49541;BME280;35432;43.566;1.398;2023-01-30T06:23:01;101384.78;;;4.40;68.79
49541;BME280;35432;43.566;1.398;2023-01-30T06:25:26;101373.50;;;4.41;69.15
49541;BME280;35432;43.566;1.398;2023-01-30T06:27:52;101371.81;;;4.41;69.32
49541;BME280;35432;43.566;1.398;2023-01-30T06:30:17;101374.44;;;4.43;69.25
49541;BME280;35432;43.566;1.398;2023-01-30T06:32:43;101370.97;;;4.42;69.29
49541;BME280;35432;43.566;1.398;2023-01-30T06:35:08;101377.88;;;4.42;69.24
49541;BME280;35432;43.566;1.398;2023-01-30T06:37:33;101374.41;;;4.41;69.33
49541;BME280;35432;43.566;1.398;2023-01-30T06:39:59;101362.97;;;4.38;68.39
49541;BME280;35432;43.566;1.398;2023-01-30T06:42:24;101371.59;;;4.37;69.05
49541;BME280;35432;43.566;1.398;2023-01-30T06:44:50;101363.75;;;4.35;69.11
49541;BME280;35432;43.566;1.398;2023-01-30T06:47:15;101353.25;;;4.34;68.91
49541;BME280;35432;43.566;1.398;2023-01-30T06:49:41;101357.50;;;4.31;69.60
49541;BME280;35432;43.566;1.398;2023-01-30T06:52:06;101352.19;;;4.28;68.88
49541;BME280;35432;43.566;1.398;2023-01-30T06:54:31;101358.22;;;4.27;69.48
49541;BME280;35432;43.566;1.398;2023-01-30T06:56:57;101359.09;;;4.28;69.64
49541;BME280;35432;43.566;1.398;2023-01-30T06:59:22;101365.22;;;4.28;69.78
49541;BME280;35432;43.566;1.398;2023-01-30T07:01:47;101361.66;;;4.26;69.36
49541;BME280;35432;43.566;1.398;2023-01-30T07:04:13;101370.34;;;4.27;69.35
49541;BME280;35432;43.566;1.398;2023-01-30T07:06:38;101364.28;;;4.26;69.32
49541;BME280;35432;43.566;1.398;2023-01-30T07:09:04;101365.13;;;4.27;69.27
49541;BME280;35432;43.566;1.398;2023-01-30T07:11:29;101369.50;;;4.26;69.09
49541;BME280;35432;43.566;1.398;2023-01-30T07:13:56;101359.06;;;4.26;69.61
49541;BME280;35432;43.566;1.398;2023-01-30T07:16:21;101366.88;;;4.26;69.71
49541;BME280;35432;43.566;1.398;2023-01-30T07:18:54;101366.88;;;4.26;69.30
49541;BME280;35432;43.566;1.398;2023-01-30T07:21:25;101374.69;;;4.26;68.99
49541;BME280;35432;43.566;1.398;2023-01-30T07:23:51;101384.22;;;4.26;68.93
49541;BME280;35432;43.566;1.398;2023-01-30T07:26:17;101385.13;;;4.26;68.94
49541;BME280;35432;43.566;1.398;2023-01-30T07:28:42;101385.25;;;4.29;69.51
49541;BME280;35432;43.566;1.398;2023-01-30T07:31:07;101392.25;;;4.30;69.15
49541;BME280;35432;43.566;1.398;2023-01-30T07:33:33;101393.25;;;4.34;69.23
49541;BME280;35432;43.566;1.398;2023-01-30T07:35:58;101389.03;;;4.38;69.21
49541;BME280;35432;43.566;1.398;2023-01-30T07:38:24;101386.53;;;4.41;69.33
49541;BME280;35432;43.566;1.398;2023-01-30T07:40:49;101385.78;;;4.43;68.88
49541;BME280;35432;43.566;1.398;2023-01-30T07:43:14;101378.00;;;4.45;69.12
49541;BME280;35432;43.566;1.398;2023-01-30T07:45:43;101384.31;;;4.50;69.35
49541;BME280;35432;43.566;1.398;2023-01-30T07:48:11;101386.97;;;4.52;69.14
49541;BME280;35432;43.566;1.398;2023-01-30T07:50:37;101385.31;;;4.54;69.05
49541;BME280;35432;43.566;1.398;2023-01-30T07:53:04;101387.16;;;4.56;69.15
49541;BME280;35432;43.566;1.398;2023-01-30T07:55:29;101388.09;;;4.58;69.03
49541;BME280;35432;43.566;1.398;2023-01-30T07:57:55;101391.66;;;4.60;68.95
49541;BME280;35432;43.566;1.398;2023-01-30T08:00:20;101389.88;;;4.59;68.91
49541;BME280;35432;43.566;1.398;2023-01-30T08:02:46;101383.78;;;4.59;68.96
49541;BME280;35432;43.566;1.398;2023-01-30T08:05:11;101388.09;;;4.58;69.28
49541;BME280;35432;43.566;1.398;2023-01-30T08:07:37;101393.31;;;4.58;69.04
49541;BME280;35432;43.566;1.398;2023-01-30T08:10:02;101396.75;;;4.57;68.83
49541;BME280;35432;43.566;1.398;2023-01-30T08:12:28;101393.31;;;4.58;68.60
49541;BME280;35432;43.566;1.398;2023-01-30T08:14:54;101396.03;;;4.62;69.03
49541;BME280;35432;43.566;1.398;2023-01-30T08:17:19;101393.63;;;4.66;68.91
49541;BME280;35432;43.566;1.398;2023-01-30T08:19:44;101397.34;;;4.73;68.89
49541;BME280;35432;43.566;1.398;2023-01-30T08:22:10;101402.69;;;4.76;68.51
49541;BME280;35432;43.566;1.398;2023-01-30T08:24:35;101409.63;;;4.76;68.58
49541;BME280;35432;43.566;1.398;2023-01-30T08:27:01;101409.69;;;4.77;69.00
49541;BME280;35432;43.566;1.398;2023-01-30T08:29:27;101415.03;;;4.80;68.87
49541;BME280;35432;43.566;1.398;2023-01-30T08:31:57;101431.03;;;4.89;67.93
49541;BME280;35432;43.566;1.398;2023-01-30T08:34:23;101432.44;;;5.04;68.87
49541;BME280;35432;43.566;1.398;2023-01-30T08:36:48;101442.50;;;5.17;68.34
49541;BME280;35432;43.566;1.398;2023-01-30T08:39:13;101437.13;;;5.37;68.19
49541;BME280;35432;43.566;1.398;2023-01-30T08:41:39;101436.94;;;5.57;68.35
49541;BME280;35432;43.566;1.398;2023-01-30T08:44:08;101425.16;;;5.68;67.45
49541;BME280;35432;43.566;1.398;2023-01-30T08:46:33;101428.91;;;5.77;67.37
49541;BME280;35432;43.566;1.398;2023-01-30T08:48:59;101433.38;;;5.79;67.37
49541;BME280;35432;43.566;1.398;2023-01-30T08:51:24;101431.44;;;5.73;66.90
49541;BME280;35432;43.566;1.398;2023-01-30T08:53:49;101434.66;;;5.66;67.55
49541;BME280;35432;43.566;1.398;2023-01-30T08:56:15;101439.94;;;5.68;67.50
49541;BME280;35432;43.566;1.398;2023-01-30T08:58:40;101431.69;;;5.81;66.80
49541;BME280;35432;43.566;1.398;2023-01-30T09:01:07;101432.53;;;6.88;67.13
49541;BME280;35432;43.566;1.398;2023-01-30T09:03:33;101424.91;;;8.29;66.27
49541;BME280;35432;43.566;1.398;2023-01-30T09:05:59;101413.13;;;9.77;64.59
49541;BME280;35432;43.566;1.398;2023-01-30T09:08:24;101398.59;;;11.25;62.36
49541;BME280;35432;43.566;1.398;2023-01-30T09:10:50;101388.63;;;13.29;59.49
49541;BME280;35432;43.566;1.398;2023-01-30T09:13:15;101377.63;;;15.55;57.39
49541;BME280;35432;43.566;1.398;2023-01-30T09:15:41;101362.97;;;17.62;54.18
49541;BME280;35432;43.566;1.398;2023-01-30T09:18:07;101362.31;;;19.38;50.87
49541;BME280;35432;43.566;1.398;2023-01-30T09:20:32;101364.53;;;20.93;49.25
49541;BME280;35432;43.566;1.398;2023-01-30T09:22:58;101358.44;;;22.28;47.08
49541;BME280;35432;43.566;1.398;2023-01-30T09:25:24;101362.81;;;23.27;45.11
49541;BME280;35432;43.566;1.398;2023-01-30T09:27:49;101375.28;;;24.17;44.12
49541;BME280;35432;43.566;1.398;2023-01-30T09:30:16;101371.19;;;24.69;41.92
49541;BME280;35432;43.566;1.398;2023-01-30T09:32:41;101358.41;;;24.93;41.13
49541;BME280;35432;43.566;1.398;2023-01-30T09:35:07;101371.09;;;25.30;40.81
49541;BME280;35432;43.566;1.398;2023-01-30T09:37:32;101372.97;;;25.84;40.44
49541;BME280;35432;43.566;1.398;2023-01-30T09:39:58;101377.13;;;26.26;39.03
49541;BME280;35432;43.566;1.398;2023-01-30T09:45:28;101379.09;;;26.91;36.77
49541;BME280;35432;43.566;1.398;2023-01-30T09:48:28;101378.56;;;27.17;36.09
49541;BME280;35432;43.566;1.398;2023-01-30T09:55:57;101382.06;;;27.19;37.54
49541;BME280;35432;43.566;1.398;2023-01-30T09:58:25;101392.22;;;25.01;39.55
49541;BME280;35432;43.566;1.398;2023-01-30T10:01:02;101398.84;;;24.12;38.47
49541;BME280;35432;43.566;1.398;2023-01-30T10:03:38;101397.06;;;23.89;38.52
49541;BME280;35432;43.566;1.398;2023-01-30T10:06:10;101406.97;;;22.72;40.37
49541;BME280;35432;43.566;1.398;2023-01-30T10:11:37;101405.53;;;23.79;39.64
49541;BME280;35432;43.566;1.398;2023-01-30T10:14:32;101405.09;;;24.54;37.91
49541;BME280;35432;43.566;1.398;2023-01-30T10:28:33;101409.03;;;27.99;35.71
49541;BME280;35432;43.566;1.398;2023-01-30T10:31:06;101406.97;;;28.49;34.02
49541;BME280;35432;43.566;1.398;2023-01-30T10:33:54;101406.41;;;27.67;35.07
49541;BME280;35432;43.566;1.398;2023-01-30T10:36:28;101405.22;;;27.87;34.97
49541;BME280;35432;43.566;1.398;2023-01-30T10:38:58;101407.22;;;26.87;36.09
49541;BME280;35432;43.566;1.398;2023-01-30T10:41:33;101413.59;;;26.16;34.84
49541;BME280;35432;43.566;1.398;2023-01-30T10:44:08;101409.78;;;25.85;35.19
49541;BME280;35432;43.566;1.398;2023-01-30T10:46:43;101409.09;;;25.62;37.87
49541;BME280;35432;43.566;1.398;2023-01-30T10:49:53;101404.78;;;23.54;38.71
49541;BME280;35432;43.566;1.398;2023-01-30T10:55:34;101392.06;;;24.85;38.05
49541;BME280;35432;43.566;1.398;2023-01-30T10:58:19;101392.41;;;24.15;38.06
49541;BME280;35432;43.566;1.398;2023-01-30T11:03:37;101383.09;;;22.88;35.77
49541;BME280;35432;43.566;1.398;2023-01-30T11:06:18;101386.56;;;22.92;39.66
49541;BME280;35432;43.566;1.398;2023-01-30T11:08:48;101380.94;;;23.44;40.92
49541;BME280;35432;43.566;1.398;2023-01-30T11:13:45;101375.31;;;23.50;40.47
49541;BME280;35432;43.566;1.398;2023-01-30T11:16:11;101386.09;;;23.73;40.11
49541;BME280;35432;43.566;1.398;2023-01-30T11:18:48;101383.03;;;23.60;37.45
49541;BME280;35432;43.566;1.398;2023-01-30T11:21:35;101377.53;;;23.17;35.95
49541;BME280;35432;43.566;1.398;2023-01-30T11:24:14;101377.56;;;22.69;40.59
49541;BME280;35432;43.566;1.398;2023-01-30T11:26:41;101377.97;;;22.31;42.87
49541;BME280;35432;43.566;1.398;2023-01-30T11:29:29;101372.78;;;21.44;36.47
49541;BME280;35432;43.566;1.398;2023-01-30T11:32:00;101377.41;;;21.11;42.81
49541;BME280;35432;43.566;1.398;2023-01-30T11:34:26;101388.88;;;20.84;44.71
49541;BME280;35432;43.566;1.398;2023-01-30T11:36:52;101380.69;;;19.88;46.52
49541;BME280;35432;43.566;1.398;2023-01-30T11:39:20;101382.47;;;19.12;47.11
49541;BME280;35432;43.566;1.398;2023-01-30T11:44:25;101379.97;;;18.10;44.98
49541;BME280;35432;43.566;1.398;2023-01-30T11:46:51;101380.13;;;18.00;49.29
49541;BME280;35432;43.566;1.398;2023-01-30T11:49:18;101375.03;;;17.85;49.53
49541;BME280;35432;43.566;1.398;2023-01-30T11:51:47;101383.03;;;17.27;49.81
49541;BME280;35432;43.566;1.398;2023-01-30T11:54:37;101379.59;;;16.39;46.89
49541;BME280;35432;43.566;1.398;2023-01-30T11:57:08;101386.78;;;16.29;51.94
49541;BME280;35432;43.566;1.398;2023-01-30T11:59:42;101382.41;;;16.23;48.45
49541;BME280;35432;43.566;1.398;2023-01-30T12:02:20;101375.47;;;16.08;46.45
49541;BME280;35432;43.566;1.398;2023-01-30T12:04:50;101373.84;;;15.91;52.52
49541;BME280;35432;43.566;1.398;2023-01-30T12:07:29;101368.78;;;15.53;49.50
49541;BME280;35432;43.566;1.398;2023-01-30T12:09:58;101371.66;;;15.20;54.00
49541;BME280;35432;43.566;1.398;2023-01-30T12:14:53;101376.34;;;14.42;54.57
49541;BME280;35432;43.566;1.398;2023-01-30T12:25:43;101371.06;;;13.62;53.20
49541;BME280;35432;43.566;1.398;2023-01-30T12:30:44;101360.50;;;13.84;53.50
49541;BME280;35432;43.566;1.398;2023-01-30T12:33:12;101365.78;;;13.98;55.04
49541;BME280;35432;43.566;1.398;2023-01-30T12:35:51;101356.97;;;13.71;53.17
49541;BME280;35432;43.566;1.398;2023-01-30T12:38:40;101363.06;;;13.34;52.51
49541;BME280;35432;43.566;1.398;2023-01-30T12:58:22;101340.19;;;13.69;53.52
49541;BME280;35432;43.566;1.398;2023-01-30T13:01:05;101330.47;;;13.62;55.11
49541;BME280;35432;43.566;1.398;2023-01-30T13:04:00;101323.38;;;13.28;52.24
49541;BME280;35432;43.566;1.398;2023-01-30T13:11:49;101303.03;;;13.07;53.54
49541;BME280;35432;43.566;1.398;2023-01-30T13:14:29;101307.44;;;12.99;52.00
49541;BME280;35432;43.566;1.398;2023-01-30T13:17:25;101303.88;;;12.89;48.73
49541;BME280;35432;43.566;1.398;2023-01-30T13:23:08;101298.56;;;12.87;55.84
49541;BME280;35432;43.566;1.398;2023-01-30T13:28:15;101301.16;;;12.64;55.00
49541;BME280;35432;43.566;1.398;2023-01-30T13:30:43;101294.91;;;12.48;57.97
49541;BME280;35432;43.566;1.398;2023-01-30T13:33:13;101300.06;;;12.28;57.69
49541;BME280;35432;43.566;1.398;2023-01-30T13:35:46;101296.47;;;12.12;56.83
49541;BME280;35432;43.566;1.398;2023-01-30T13:38:19;101299.88;;;11.98;56.63
49541;BME280;35432;43.566;1.398;2023-01-30T13:40:47;101297.19;;;11.92;58.50
49541;BME280;35432;43.566;1.398;2023-01-30T13:45:44;101298.03;;;11.85;58.54
49541;BME280;35432;43.566;1.398;2023-01-30T13:48:24;101299.69;;;11.75;57.41
49541;BME280;35432;43.566;1.398;2023-01-30T13:51:11;101296.09;;;11.65;54.35
49541;BME280;35432;43.566;1.398;2023-01-30T13:53:50;101286.34;;;11.53;53.49
49541;BME280;35432;43.566;1.398;2023-01-30T13:56:44;101288.06;;;11.46;58.76
49541;BME280;35432;43.566;1.398;2023-01-30T14:07:13;101287.06;;;11.35;57.14
49541;BME280;35432;43.566;1.398;2023-01-30T14:10:00;101283.47;;;11.24;54.80
49541;BME280;35432;43.566;1.398;2023-01-30T14:12:33;101281.47;;;11.01;59.36
49541;BME280;35432;43.566;1.398;2023-01-30T14:20:24;101288.59;;;10.37;61.29
49541;BME280;35432;43.566;1.398;2023-01-30T14:22:52;101291.22;;;10.39;60.98
49541;BME280;35432;43.566;1.398;2023-01-30T14:27:51;101291.44;;;10.51;60.96
49541;BME280;35432;43.566;1.398;2023-01-30T14:38:36;101298.66;;;10.66;57.36
49541;BME280;35432;43.566;1.398;2023-01-30T14:46:11;101293.06;;;10.43;59.46
49541;BME280;35432;43.566;1.398;2023-01-30T14:49:03;101300.78;;;10.30;58.83
49541;BME280;35432;43.566;1.398;2023-01-30T14:56:43;101295.81;;;10.49;60.79
49541;BME280;35432;43.566;1.398;2023-01-30T15:09:49;101280.63;;;10.32;60.96
49541;BME280;35432;43.566;1.398;2023-01-30T15:17:41;101278.53;;;10.07;59.18
49541;BME280;35432;43.566;1.398;2023-01-30T15:20:17;101265.31;;;10.05;60.69
49541;BME280;35432;43.566;1.398;2023-01-30T15:31:21;101271.09;;;9.77;58.87
49541;BME280;35432;43.566;1.398;2023-01-30T15:33:49;101275.41;;;9.75;62.71
49541;BME280;35432;43.566;1.398;2023-01-30T15:36:28;101286.69;;;9.68;59.39
49541;BME280;35432;43.566;1.398;2023-01-30T15:38:56;101277.94;;;9.69;62.70
49541;BME280;35432;43.566;1.398;2023-01-30T15:41:22;101280.63;;;9.71;63.19
49541;BME280;35432;43.566;1.398;2023-01-30T15:49:45;101276.91;;;9.58;58.94
49541;BME280;35432;43.566;1.398;2023-01-30T15:52:17;101277.63;;;9.51;63.11
49541;BME280;35432;43.566;1.398;2023-01-30T15:54:58;101280.91;;;9.36;58.38
49541;BME280;35432;43.566;1.398;2023-01-30T15:57:28;101290.44;;;9.30;63.24